createdAt,value
2022-10-04T00:04:04.167Z,14.51
2022-10-04T00:19:21.170Z,14.49
2022-10-04T00:34:38.109Z,14.399999999999999
2022-10-04T00:49:54.121Z,14.230000000000002
2022-10-04T01:05:11.063Z,14.16
2022-10-04T01:20:27.064Z,14.059999999999999
2022-10-04T01:35:43.009Z,13.760000000000002
2022-10-04T01:36:24.898Z,13.760000000000002
2022-10-04T01:51:01.027Z,13.62
2022-10-04T02:06:18.986Z,13.529999999999998
2022-10-04T02:21:35.967Z,13.369999999999997
2022-10-04T02:36:52.033Z,13.34
2022-10-04T02:52:07.904Z,13.369999999999997
2022-10-04T03:07:24.881Z,13.62
2022-10-04T03:22:44.857Z,13.679999999999998
2022-10-04T03:37:56.822Z,13.62
2022-10-04T03:53:13.805Z,13.26
2022-10-04T04:08:31.779Z,12.890000000000002
2022-10-04T04:23:48.776Z,12.63
2022-10-04T04:39:04.730Z,12.550000000000002
2022-10-04T04:54:20.665Z,12.3
2022-10-04T05:09:36.700Z,12.34
2022-10-04T05:24:52.619Z,11.950000000000001
2022-10-04T05:40:09.630Z,11.950000000000001
2022-10-04T05:55:27.563Z,12.040000000000001
2022-10-04T06:10:44.575Z,12.049999999999997
2022-10-04T06:26:00.513Z,12.029999999999998
2022-10-04T06:41:16.565Z,14.260000000000002
2022-10-04T06:56:33.462Z,14.63
2022-10-04T07:11:49.471Z,15.05
2022-10-04T07:27:05.491Z,15.541667653893937
2022-10-04T07:42:22.408Z,15.283212464201663
2022-10-04T07:57:40.350Z,15.650000000000002
2022-10-04T08:12:57.342Z,14.992621341521664
2022-10-04T08:28:13.365Z,14.69537320902181
2022-10-04T08:43:29.287Z,14.695038532297053
2022-10-04T08:58:46.223Z,14.809521339819312
2022-10-04T09:14:02.205Z,14.403240863997347
2022-10-04T09:29:19.189Z,13.73788122904182
2022-10-04T09:44:36.128Z,13.939952428119417
2022-10-04T09:59:54.122Z,14.16070417101615
2022-10-04T10:15:10.065Z,14.011895925147067
2022-10-04T10:30:26.057Z,13.669534855003976
2022-10-04T10:45:42.009Z,13.593769115913533
2022-10-04T11:00:59.008Z,13.622664077722384
2022-10-04T11:16:15.030Z,13.880765813135113
2022-10-04T11:31:32.000Z,13.918378898633883
2022-10-04T11:46:49.260Z,14.251415974117894
2022-10-04T12:02:05.844Z,14.392659734928158
2022-10-04T12:17:21.814Z,14.367460381164635
2022-10-04T12:32:37.777Z,14.35047676576125
2022-10-04T12:47:53.758Z,14.573533344814907
2022-10-04T13:03:10.716Z,14.547401071502373
2022-10-04T13:18:26.684Z,14.695334827568606
2022-10-04T13:33:43.664Z,14.578124672527176
2022-10-04T13:49:00.616Z,14.674976392480973
2022-10-04T14:04:17.582Z,14.382125640148569
2022-10-04T14:19:33.572Z,14.323499575740419
2022-10-04T14:34:49.513Z,14.136862631062746
2022-10-04T14:50:05.513Z,13.673609716677797
2022-10-04T15:05:23.465Z,13.806674203945152
2022-10-04T15:20:39.451Z,13.260370441993901
2022-10-04T15:35:55.392Z,13.144395363373455
2022-10-04T15:51:11.428Z,13.512990327717787
2022-10-04T16:06:29.330Z,14.242265794028876
2022-10-04T16:21:46.329Z,14.120427113230544
2022-10-04T16:37:03.296Z,13.73453955492291
2022-10-04T16:52:19.281Z,13.85369695611583
2022-10-04T17:07:36.196Z,14.537125119660168
2022-10-04T17:22:52.210Z,14.394709847166736
2022-10-04T17:38:08.177Z,14.761608832047008
2022-10-04T17:53:25.139Z,14.901406863540343
2022-10-04T18:08:43.118Z,15.230216475554629
2022-10-04T18:24:00.098Z,15.707158091311522
2022-10-04T18:39:16.060Z,16.19416201021611
2022-10-04T18:54:31.992Z,16.56621789803518
2022-10-04T19:09:48.999Z,17.120709989994463
2022-10-04T19:25:04.935Z,17.070000000000004
2022-10-04T19:40:20.938Z,16.73
2022-10-04T19:55:37.878Z,16.61
2022-10-04T20:10:55.886Z,16.52
2022-10-04T20:26:12.821Z,16.1
2022-10-04T20:41:28.818Z,15.730000000000004
2022-10-04T20:56:45.034Z,15.5
2022-10-04T21:12:01.764Z,15.179999999999998
2022-10-04T21:27:17.705Z,14.86
2022-10-04T21:42:34.716Z,14.730000000000002
2022-10-04T21:57:51.716Z,14.790000000000001
2022-10-04T22:13:09.662Z,14.619999999999996
2022-10-04T22:28:25.604Z,14.51
2022-10-04T22:43:41.600Z,14.19
2022-10-04T22:58:57.546Z,14.03
2022-10-04T23:14:14.525Z,13.769999999999998
2022-10-04T23:29:30.519Z,13.73
2022-10-04T23:44:47.459Z,13.58
